sensor_id;sensor_type;location;lat;lon;timestamp;temperature;humidity
12833;DHT22;6483;51.310;4.462;2022-07-22T00:02:27;13.20;99.90
12833;DHT22;6483;51.310;4.462;2022-07-22T00:04:55;13.10;99.90
12833;DHT22;6483;51.310;4.462;2022-07-22T00:07:21;13.00;99.90
12833;DHT22;6483;51.310;4.462;2022-07-22T00:09:47;13.00;99.90
12833;DHT22;6483;51.310;4.462;2022-07-22T00:12:13;13.00;99.90
12833;DHT22;6483;51.310;4.462;2022-07-22T00:14:39;13.00;99.90
12833;DHT22;6483;51.310;4.462;2022-07-22T00:17:08;13.00;99.90
12833;DHT22;6483;51.310;4.462;2022-07-22T00:19:34;12.80;99.90
12833;DHT22;6483;51.310;4.462;2022-07-22T00:22:00;12.90;99.90
12833;DHT22;6483;51.310;4.462;2022-07-22T00:24:26;13.00;99.90
12833;DHT22;6483;51.310;4.462;2022-07-22T00:26:53;13.10;99.90
12833;DHT22;6483;51.310;4.462;2022-07-22T00:29:19;13.10;99.90
12833;DHT22;6483;51.310;4.462;2022-07-22T00:31:44;12.90;99.90
12833;DHT22;6483;51.310;4.462;2022-07-22T00:34:10;12.80;99.90
12833;DHT22;6483;51.310;4.462;2022-07-22T00:36:36;12.80;99.90
12833;DHT22;6483;51.310;4.462;2022-07-22T00:39:03;12.70;99.90
12833;DHT22;6483;51.310;4.462;2022-07-22T00:41:30;12.70;99.90
12833;DHT22;6483;51.310;4.462;2022-07-22T00:44:05;12.70;99.90
12833;DHT22;6483;51.310;4.462;2022-07-22T00:46:32;12.70;99.90
12833;DHT22;6483;51.310;4.462;2022-07-22T00:48:58;12.60;99.90
12833;DHT22;6483;51.310;4.462;2022-07-22T00:51:29;12.60;99.90
12833;DHT22;6483;51.310;4.462;2022-07-22T00:53:59;12.80;99.90
12833;DHT22;6483;51.310;4.462;2022-07-22T00:56:26;12.80;99.90
12833;DHT22;6483;51.310;4.462;2022-07-22T00:58:53;12.70;99.90
12833;DHT22;6483;51.310;4.462;2022-07-22T01:01:19;12.60;99.90
12833;DHT22;6483;51.310;4.462;2022-07-22T01:03:45;12.50;99.90
12833;DHT22;6483;51.310;4.462;2022-07-22T01:06:11;12.40;99.90
12833;DHT22;6483;51.310;4.462;2022-07-22T01:08:40;12.40;99.90
12833;DHT22;6483;51.310;4.462;2022-07-22T01:11:11;12.60;99.90
12833;DHT22;6483;51.310;4.462;2022-07-22T01:13:37;12.50;99.90
12833;DHT22;6483;51.310;4.462;2022-07-22T01:16:04;12.50;99.90
12833;DHT22;6483;51.310;4.462;2022-07-22T01:18:34;12.50;99.90
12833;DHT22;6483;51.310;4.462;2022-07-22T01:21:00;12.40;99.90
12833;DHT22;6483;51.310;4.462;2022-07-22T01:23:26;12.50;99.90
12833;DHT22;6483;51.310;4.462;2022-07-22T01:25:52;12.60;99.90
12833;DHT22;6483;51.310;4.462;2022-07-22T01:28:44;12.60;99.90
12833;DHT22;6483;51.310;4.462;2022-07-22T01:31:11;12.50;99.90
12833;DHT22;6483;51.310;4.462;2022-07-22T01:33:38;12.40;99.90
12833;DHT22;6483;51.310;4.462;2022-07-22T01:36:10;12.30;99.90
12833;DHT22;6483;51.310;4.462;2022-07-22T01:38:36;12.40;99.90
12833;DHT22;6483;51.310;4.462;2022-07-22T01:41:02;12.40;99.90
12833;DHT22;6483;51.310;4.462;2022-07-22T01:43:27;12.30;99.90
12833;DHT22;6483;51.310;4.462;2022-07-22T01:45:54;12.30;99.90
12833;DHT22;6483;51.310;4.462;2022-07-22T01:48:23;12.30;99.90
12833;DHT22;6483;51.310;4.462;2022-07-22T01:50:50;12.20;99.90
12833;DHT22;6483;51.310;4.462;2022-07-22T01:53:16;12.30;99.90
12833;DHT22;6483;51.310;4.462;2022-07-22T01:55:45;12.40;99.90
12833;DHT22;6483;51.310;4.462;2022-07-22T01:58:11;12.30;99.90
12833;DHT22;6483;51.310;4.462;2022-07-22T02:00:37;12.20;99.90
12833;DHT22;6483;51.310;4.462;2022-07-22T02:03:03;12.10;99.90
12833;DHT22;6483;51.310;4.462;2022-07-22T02:05:29;12.00;99.90
12833;DHT22;6483;51.310;4.462;2022-07-22T02:08:02;12.00;99.90
12833;DHT22;6483;51.310;4.462;2022-07-22T02:10:28;12.00;99.90
12833;DHT22;6483;51.310;4.462;2022-07-22T02:12:56;12.00;99.90
12833;DHT22;6483;51.310;4.462;2022-07-22T02:15:25;12.00;99.90
12833;DHT22;6483;51.310;4.462;2022-07-22T02:17:56;12.00;99.90
12833;DHT22;6483;51.310;4.462;2022-07-22T02:20:22;12.10;99.90
12833;DHT22;6483;51.310;4.462;2022-07-22T02:22:48;11.90;99.90
12833;DHT22;6483;51.310;4.462;2022-07-22T02:25:14;11.90;99.90
12833;DHT22;6483;51.310;4.462;2022-07-22T02:27:41;11.90;99.90
12833;DHT22;6483;51.310;4.462;2022-07-22T02:30:08;11.90;99.90
12833;DHT22;6483;51.310;4.462;2022-07-22T02:32:37;11.90;99.90
12833;DHT22;6483;51.310;4.462;2022-07-22T02:35:06;12.00;99.90
12833;DHT22;6483;51.310;4.462;2022-07-22T02:37:38;12.00;99.90
12833;DHT22;6483;51.310;4.462;2022-07-22T02:40:06;11.90;99.90
12833;DHT22;6483;51.310;4.462;2022-07-22T02:42:33;11.80;99.90
12833;DHT22;6483;51.310;4.462;2022-07-22T02:45:02;11.70;99.90
12833;DHT22;6483;51.310;4.462;2022-07-22T02:47:28;11.80;99.90
12833;DHT22;6483;51.310;4.462;2022-07-22T02:49:54;11.90;99.90
12833;DHT22;6483;51.310;4.462;2022-07-22T02:52:20;12.00;99.90
12833;DHT22;6483;51.310;4.462;2022-07-22T02:54:50;11.90;99.90
12833;DHT22;6483;51.310;4.462;2022-07-22T02:57:15;11.80;99.90
12833;DHT22;6483;51.310;4.462;2022-07-22T02:59:41;11.70;99.90
12833;DHT22;6483;51.310;4.462;2022-07-22T03:02:07;11.80;99.90
12833;DHT22;6483;51.310;4.462;2022-07-22T03:04:34;11.80;99.90
12833;DHT22;6483;51.310;4.462;2022-07-22T03:07:00;11.80;99.90
12833;DHT22;6483;51.310;4.462;2022-07-22T03:09:25;11.80;99.90
12833;DHT22;6483;51.310;4.462;2022-07-22T03:11:51;11.80;99.90
12833;DHT22;6483;51.310;4.462;2022-07-22T03:14:20;11.70;99.90
12833;DHT22;6483;51.310;4.462;2022-07-22T03:16:47;11.60;99.90
12833;DHT22;6483;51.310;4.462;2022-07-22T03:19:14;11.50;99.90
12833;DHT22;6483;51.310;4.462;2022-07-22T03:21:39;11.50;99.90
12833;DHT22;6483;51.310;4.462;2022-07-22T03:24:05;11.50;99.90
12833;DHT22;6483;51.310;4.462;2022-07-22T03:26:31;11.50;99.90
12833;DHT22;6483;51.310;4.462;2022-07-22T03:28:57;11.60;99.90
12833;DHT22;6483;51.310;4.462;2022-07-22T03:31:23;11.50;99.90
12833;DHT22;6483;51.310;4.462;2022-07-22T03:33:48;11.50;99.90
12833;DHT22;6483;51.310;4.462;2022-07-22T03:36:14;11.40;99.90
12833;DHT22;6483;51.310;4.462;2022-07-22T03:38:42;11.40;99.90
12833;DHT22;6483;51.310;4.462;2022-07-22T03:41:08;11.50;99.90
12833;DHT22;6483;51.310;4.462;2022-07-22T03:43:37;11.40;99.90
12833;DHT22;6483;51.310;4.462;2022-07-22T03:46:03;11.40;99.90
12833;DHT22;6483;51.310;4.462;2022-07-22T03:48:29;11.40;99.90
12833;DHT22;6483;51.310;4.462;2022-07-22T03:50:54;11.40;99.90
12833;DHT22;6483;51.310;4.462;2022-07-22T03:53:20;11.40;99.90
12833;DHT22;6483;51.310;4.462;2022-07-22T03:55:46;11.40;99.90
12833;DHT22;6483;51.310;4.462;2022-07-22T03:58:15;11.40;99.90
12833;DHT22;6483;51.310;4.462;2022-07-22T04:00:44;11.40;99.90
12833;DHT22;6483;51.310;4.462;2022-07-22T04:03:12;11.40;99.90
12833;DHT22;6483;51.310;4.462;2022-07-22T04:05:41;11.40;99.90
12833;DHT22;6483;51.310;4.462;2022-07-22T04:08:11;11.40;99.90
12833;DHT22;6483;51.310;4.462;2022-07-22T04:10:36;11.40;99.90
12833;DHT22;6483;51.310;4.462;2022-07-22T04:13:02;11.40;99.90
12833;DHT22;6483;51.310;4.462;2022-07-22T04:15:29;11.60;99.90
12833;DHT22;6483;51.310;4.462;2022-07-22T04:17:55;11.60;99.90
12833;DHT22;6483;51.310;4.462;2022-07-22T04:20:20;11.70;99.90
12833;DHT22;6483;51.310;4.462;2022-07-22T04:22:46;11.60;99.90
12833;DHT22;6483;51.310;4.462;2022-07-22T04:25:14;11.50;99.90
12833;DHT22;6483;51.310;4.462;2022-07-22T04:27:40;11.50;99.90
12833;DHT22;6483;51.310;4.462;2022-07-22T04:30:13;11.50;99.90
12833;DHT22;6483;51.310;4.462;2022-07-22T04:32:39;11.50;99.90
12833;DHT22;6483;51.310;4.462;2022-07-22T04:35:06;11.60;99.90
12833;DHT22;6483;51.310;4.462;2022-07-22T04:37:32;11.80;99.90
12833;DHT22;6483;51.310;4.462;2022-07-22T04:40:01;11.80;99.90
12833;DHT22;6483;51.310;4.462;2022-07-22T04:42:26;11.80;99.90
12833;DHT22;6483;51.310;4.462;2022-07-22T04:44:56;11.80;99.90
12833;DHT22;6483;51.310;4.462;2022-07-22T04:47:26;11.90;99.90
12833;DHT22;6483;51.310;4.462;2022-07-22T04:49:52;11.90;99.90
12833;DHT22;6483;51.310;4.462;2022-07-22T04:52:18;12.00;99.90
12833;DHT22;6483;51.310;4.462;2022-07-22T04:54:44;12.10;99.90
12833;DHT22;6483;51.310;4.462;2022-07-22T04:57:09;12.20;99.90
12833;DHT22;6483;51.310;4.462;2022-07-22T04:59:38;12.20;99.90
12833;DHT22;6483;51.310;4.462;2022-07-22T05:02:07;12.20;99.90
12833;DHT22;6483;51.310;4.462;2022-07-22T05:04:33;12.20;99.90
12833;DHT22;6483;51.310;4.462;2022-07-22T05:06:59;12.20;99.90
12833;DHT22;6483;51.310;4.462;2022-07-22T05:09:28;12.30;99.90
12833;DHT22;6483;51.310;4.462;2022-07-22T05:11:54;12.50;99.90
12833;DHT22;6483;51.310;4.462;2022-07-22T05:14:26;12.50;99.90
12833;DHT22;6483;51.310;4.462;2022-07-22T05:16:51;12.60;99.90
12833;DHT22;6483;51.310;4.462;2022-07-22T05:19:17;12.70;99.90
12833;DHT22;6483;51.310;4.462;2022-07-22T05:21:43;12.70;99.90
12833;DHT22;6483;51.310;4.462;2022-07-22T05:24:11;12.80;99.90
12833;DHT22;6483;51.310;4.462;2022-07-22T05:26:40;12.90;99.90
12833;DHT22;6483;51.310;4.462;2022-07-22T05:29:06;13.00;99.90
12833;DHT22;6483;51.310;4.462;2022-07-22T05:31:35;13.10;99.90
12833;DHT22;6483;51.310;4.462;2022-07-22T05:34:01;13.20;99.90
12833;DHT22;6483;51.310;4.462;2022-07-22T05:36:26;13.30;99.90
12833;DHT22;6483;51.310;4.462;2022-07-22T05:38:55;13.50;99.90
12833;DHT22;6483;51.310;4.462;2022-07-22T05:41:20;13.60;99.90
12833;DHT22;6483;51.310;4.462;2022-07-22T05:43:46;13.70;99.90
12833;DHT22;6483;51.310;4.462;2022-07-22T05:46:12;13.80;99.90
12833;DHT22;6483;51.310;4.462;2022-07-22T05:48:38;13.90;99.90
12833;DHT22;6483;51.310;4.462;2022-07-22T05:51:04;14.00;99.90
12833;DHT22;6483;51.310;4.462;2022-07-22T05:53:35;14.10;99.90
12833;DHT22;6483;51.310;4.462;2022-07-22T05:56:00;14.20;99.90
12833;DHT22;6483;51.310;4.462;2022-07-22T05:58:26;14.30;99.90
12833;DHT22;6483;51.310;4.462;2022-07-22T06:00:55;14.50;99.90
12833;DHT22;6483;51.310;4.462;2022-07-22T06:03:21;14.70;99.90
12833;DHT22;6483;51.310;4.462;2022-07-22T06:05:50;14.80;99.90
12833;DHT22;6483;51.310;4.462;2022-07-22T06:08:17;15.10;99.90
12833;DHT22;6483;51.310;4.462;2022-07-22T06:10:43;15.30;99.90
12833;DHT22;6483;51.310;4.462;2022-07-22T06:13:12;15.50;99.90
12833;DHT22;6483;51.310;4.462;2022-07-22T06:15:37;15.60;99.90
12833;DHT22;6483;51.310;4.462;2022-07-22T06:18:06;15.80;99.90
12833;DHT22;6483;51.310;4.462;2022-07-22T06:20:32;15.90;99.90
12833;DHT22;6483;51.310;4.462;2022-07-22T06:22:58;16.10;99.90
12833;DHT22;6483;51.310;4.462;2022-07-22T06:25:24;16.20;99.90
12833;DHT22;6483;51.310;4.462;2022-07-22T06:27:49;16.30;99.90
12833;DHT22;6483;51.310;4.462;2022-07-22T06:30:16;16.40;99.90
12833;DHT22;6483;51.310;4.462;2022-07-22T06:32:43;16.50;99.90
12833;DHT22;6483;51.310;4.462;2022-07-22T06:35:09;16.60;99.90
12833;DHT22;6483;51.310;4.462;2022-07-22T06:37:35;16.70;99.90
12833;DHT22;6483;51.310;4.462;2022-07-22T06:40:03;16.90;99.90
12833;DHT22;6483;51.310;4.462;2022-07-22T06:42:35;17.10;99.90
12833;DHT22;6483;51.310;4.462;2022-07-22T06:45:00;17.10;99.90
12833;DHT22;6483;51.310;4.462;2022-07-22T06:47:26;17.30;99.90
12833;DHT22;6483;51.310;4.462;2022-07-22T06:49:53;17.40;99.90
12833;DHT22;6483;51.310;4.462;2022-07-22T06:52:19;17.50;99.90
12833;DHT22;6483;51.310;4.462;2022-07-22T06:54:45;17.60;99.90
12833;DHT22;6483;51.310;4.462;2022-07-22T06:57:13;17.70;99.90
12833;DHT22;6483;51.310;4.462;2022-07-22T06:59:39;17.80;99.90
12833;DHT22;6483;51.310;4.462;2022-07-22T07:02:04;17.90;99.90
12833;DHT22;6483;51.310;4.462;2022-07-22T07:04:33;18.00;99.90
12833;DHT22;6483;51.310;4.462;2022-07-22T07:06:59;18.00;99.90
12833;DHT22;6483;51.310;4.462;2022-07-22T07:09:28;18.10;99.90
12833;DHT22;6483;51.310;4.462;2022-07-22T07:11:55;18.10;99.90
12833;DHT22;6483;51.310;4.462;2022-07-22T07:14:21;18.20;99.90
12833;DHT22;6483;51.310;4.462;2022-07-22T07:16:46;18.30;99.90
12833;DHT22;6483;51.310;4.462;2022-07-22T07:19:12;18.50;99.90
12833;DHT22;6483;51.310;4.462;2022-07-22T07:21:38;18.70;99.90
12833;DHT22;6483;51.310;4.462;2022-07-22T07:24:04;19.00;99.90
12833;DHT22;6483;51.310;4.462;2022-07-22T07:26:30;19.10;99.90
12833;DHT22;6483;51.310;4.462;2022-07-22T07:28:56;19.30;99.90
12833;DHT22;6483;51.310;4.462;2022-07-22T07:31:22;19.30;99.90
12833;DHT22;6483;51.310;4.462;2022-07-22T07:33:48;19.40;99.90
12833;DHT22;6483;51.310;4.462;2022-07-22T07:36:16;19.40;99.90
12833;DHT22;6483;51.310;4.462;2022-07-22T07:38:42;19.50;99.90
12833;DHT22;6483;51.310;4.462;2022-07-22T07:41:08;20.10;99.90
12833;DHT22;6483;51.310;4.462;2022-07-22T07:43:34;20.60;99.90
12833;DHT22;6483;51.310;4.462;2022-07-22T07:46:03;21.40;99.90
12833;DHT22;6483;51.310;4.462;2022-07-22T07:48:36;22.20;99.90
12833;DHT22;6483;51.310;4.462;2022-07-22T07:51:04;22.70;99.90
12833;DHT22;6483;51.310;4.462;2022-07-22T07:53:33;22.80;99.90
12833;DHT22;6483;51.310;4.462;2022-07-22T07:55:59;22.70;99.90
12833;DHT22;6483;51.310;4.462;2022-07-22T07:58:24;22.30;99.90
12833;DHT22;6483;51.310;4.462;2022-07-22T08:00:50;22.20;99.90
12833;DHT22;6483;51.310;4.462;2022-07-22T08:03:19;21.90;99.90
12833;DHT22;6483;51.310;4.462;2022-07-22T08:05:44;21.80;99.90
12833;DHT22;6483;51.310;4.462;2022-07-22T08:08:13;21.80;99.90
12833;DHT22;6483;51.310;4.462;2022-07-22T08:10:39;22.00;99.90
12833;DHT22;6483;51.310;4.462;2022-07-22T08:13:05;22.20;99.90
12833;DHT22;6483;51.310;4.462;2022-07-22T08:15:32;22.50;99.90
12833;DHT22;6483;51.310;4.462;2022-07-22T08:18:01;22.50;99.90
12833;DHT22;6483;51.310;4.462;2022-07-22T08:20:29;22.80;99.90
12833;DHT22;6483;51.310;4.462;2022-07-22T08:22:56;23.20;99.90
12833;DHT22;6483;51.310;4.462;2022-07-22T08:25:22;23.10;99.90
12833;DHT22;6483;51.310;4.462;2022-07-22T08:27:48;23.30;99.90
12833;DHT22;6483;51.310;4.462;2022-07-22T08:30:14;23.90;99.90
12833;DHT22;6483;51.310;4.462;2022-07-22T08:32:40;23.80;99.90
12833;DHT22;6483;51.310;4.462;2022-07-22T08:35:06;24.70;99.90
12833;DHT22;6483;51.310;4.462;2022-07-22T08:37:35;25.30;99.90
12833;DHT22;6483;51.310;4.462;2022-07-22T08:40:06;25.60;99.90
12833;DHT22;6483;51.310;4.462;2022-07-22T08:42:37;25.90;99.90
12833;DHT22;6483;51.310;4.462;2022-07-22T08:45:04;25.80;99.90
12833;DHT22;6483;51.310;4.462;2022-07-22T08:47:30;24.90;99.90
12833;DHT22;6483;51.310;4.462;2022-07-22T08:49:56;24.10;99.90
12833;DHT22;6483;51.310;4.462;2022-07-22T08:52:23;23.40;99.90
12833;DHT22;6483;51.310;4.462;2022-07-22T08:54:56;23.00;99.90
12833;DHT22;6483;51.310;4.462;2022-07-22T08:57:22;23.00;99.90
12833;DHT22;6483;51.310;4.462;2022-07-22T08:59:50;22.80;99.90
12833;DHT22;6483;51.310;4.462;2022-07-22T09:02:17;23.10;99.90
12833;DHT22;6483;51.310;4.462;2022-07-22T09:05:04;23.10;99.90
12833;DHT22;6483;51.310;4.462;2022-07-22T09:07:36;23.30;99.90
12833;DHT22;6483;51.310;4.462;2022-07-22T09:10:08;23.50;99.90
12833;DHT22;6483;51.310;4.462;2022-07-22T09:12:34;23.70;99.90
12833;DHT22;6483;51.310;4.462;2022-07-22T09:15:24;23.10;99.90
12833;DHT22;6483;51.310;4.462;2022-07-22T09:17:49;23.30;99.90
12833;DHT22;6483;51.310;4.462;2022-07-22T09:20:17;23.50;99.90
12833;DHT22;6483;51.310;4.462;2022-07-22T09:22:46;23.40;99.90
12833;DHT22;6483;51.310;4.462;2022-07-22T09:28:21;23.80;99.90
12833;DHT22;6483;51.310;4.462;2022-07-22T09:30:54;23.90;99.90
12833;DHT22;6483;51.310;4.462;2022-07-22T09:33:26;23.70;99.90
12833;DHT22;6483;51.310;4.462;2022-07-22T09:36:02;23.80;99.90
12833;DHT22;6483;51.310;4.462;2022-07-22T09:38:33;24.20;99.90
12833;DHT22;6483;51.310;4.462;2022-07-22T09:41:01;24.10;99.90
12833;DHT22;6483;51.310;4.462;2022-07-22T09:43:29;24.00;99.90
12833;DHT22;6483;51.310;4.462;2022-07-22T09:46:01;23.50;99.90
12833;DHT22;6483;51.310;4.462;2022-07-22T09:48:33;24.30;99.90
12833;DHT22;6483;51.310;4.462;2022-07-22T09:51:02;25.50;99.90
12833;DHT22;6483;51.310;4.462;2022-07-22T09:53:29;26.20;99.90
12833;DHT22;6483;51.310;4.462;2022-07-22T09:56:00;27.20;99.60
12833;DHT22;6483;51.310;4.462;2022-07-22T09:58:27;26.10;99.90
12833;DHT22;6483;51.310;4.462;2022-07-22T10:00:53;25.00;99.90
12833;DHT22;6483;51.310;4.462;2022-07-22T10:03:34;25.20;99.90
12833;DHT22;6483;51.310;4.462;2022-07-22T10:06:01;25.50;99.90
12833;DHT22;6483;51.310;4.462;2022-07-22T10:08:31;26.70;99.80
12833;DHT22;6483;51.310;4.462;2022-07-22T10:11:03;28.30;97.70
12833;DHT22;6483;51.310;4.462;2022-07-22T10:13:30;28.50;95.60
12833;DHT22;6483;51.310;4.462;2022-07-22T10:16:00;28.10;96.90
12833;DHT22;6483;51.310;4.462;2022-07-22T10:18:27;28.80;96.10
12833;DHT22;6483;51.310;4.462;2022-07-22T10:21:07;29.40;94.10
12833;DHT22;6483;51.310;4.462;2022-07-22T10:23:36;28.20;96.00
12833;DHT22;6483;51.310;4.462;2022-07-22T10:26:55;28.50;96.10
12833;DHT22;6483;51.310;4.462;2022-07-22T10:29:45;29.40;94.30
12833;DHT22;6483;51.310;4.462;2022-07-22T10:32:31;28.90;93.70
12833;DHT22;6483;51.310;4.462;2022-07-22T10:40:22;29.40;94.40
12833;DHT22;6483;51.310;4.462;2022-07-22T10:45:54;31.50;91.30
12833;DHT22;6483;51.310;4.462;2022-07-22T10:51:21;30.10;90.70
12833;DHT22;6483;51.310;4.462;2022-07-22T10:54:01;29.80;90.00
12833;DHT22;6483;51.310;4.462;2022-07-22T10:56:31;29.40;91.50
12833;DHT22;6483;51.310;4.462;2022-07-22T10:59:16;29.10;91.30
12833;DHT22;6483;51.310;4.462;2022-07-22T11:01:52;30.80;91.20
12833;DHT22;6483;51.310;4.462;2022-07-22T11:04:30;31.70;90.20
12833;DHT22;6483;51.310;4.462;2022-07-22T11:06:56;33.30;84.20
12833;DHT22;6483;51.310;4.462;2022-07-22T11:09:35;32.00;79.70
12833;DHT22;6483;51.310;4.462;2022-07-22T11:12:12;32.00;83.20
12833;DHT22;6483;51.310;4.462;2022-07-22T11:14:38;31.40;82.30
12833;DHT22;6483;51.310;4.462;2022-07-22T11:17:12;31.30;84.10
12833;DHT22;6483;51.310;4.462;2022-07-22T11:19:41;30.90;81.50
12833;DHT22;6483;51.310;4.462;2022-07-22T11:22:11;30.30;84.10
12833;DHT22;6483;51.310;4.462;2022-07-22T11:32:15;30.40;84.20
12833;DHT22;6483;51.310;4.462;2022-07-22T18:25:32;30.20;87.10
12833;DHT22;6483;51.310;4.462;2022-07-22T18:27:58;19.60;99.90
12833;DHT22;6483;51.310;4.462;2022-07-22T18:30:24;19.30;99.90
12833;DHT22;6483;51.310;4.462;2022-07-22T18:32:49;19.30;99.90
12833;DHT22;6483;51.310;4.462;2022-07-22T18:35:15;19.20;99.90
12833;DHT22;6483;51.310;4.462;2022-07-22T18:37:42;19.10;99.90
12833;DHT22;6483;51.310;4.462;2022-07-22T18:40:08;19.00;99.90
12833;DHT22;6483;51.310;4.462;2022-07-22T18:42:36;18.90;99.90
12833;DHT22;6483;51.310;4.462;2022-07-22T18:45:03;18.90;99.90
12833;DHT22;6483;51.310;4.462;2022-07-22T18:47:30;18.90;99.90
12833;DHT22;6483;51.310;4.462;2022-07-22T18:50:01;18.90;99.90
12833;DHT22;6483;51.310;4.462;2022-07-22T18:52:27;18.90;99.90
12833;DHT22;6483;51.310;4.462;2022-07-22T18:54:54;18.90;99.90
12833;DHT22;6483;51.310;4.462;2022-07-22T18:57:23;18.80;99.90
12833;DHT22;6483;51.310;4.462;2022-07-22T18:59:49;18.90;99.90
12833;DHT22;6483;51.310;4.462;2022-07-22T19:02:14;18.80;99.90
12833;DHT22;6483;51.310;4.462;2022-07-22T19:04:40;18.90;99.90
12833;DHT22;6483;51.310;4.462;2022-07-22T19:07:06;18.90;99.90
12833;DHT22;6483;51.310;4.462;2022-07-22T19:09:34;18.90;99.90
12833;DHT22;6483;51.310;4.462;2022-07-22T19:12:03;18.90;99.90
12833;DHT22;6483;51.310;4.462;2022-07-22T19:14:29;18.80;99.90
12833;DHT22;6483;51.310;4.462;2022-07-22T19:16:57;18.70;99.90
12833;DHT22;6483;51.310;4.462;2022-07-22T19:19:23;18.70;99.90
12833;DHT22;6483;51.310;4.462;2022-07-22T19:21:49;18.70;99.90
12833;DHT22;6483;51.310;4.462;2022-07-22T19:24:16;18.80;99.90
12833;DHT22;6483;51.310;4.462;2022-07-22T19:26:41;18.80;99.90
12833;DHT22;6483;51.310;4.462;2022-07-22T19:29:11;18.70;99.90
12833;DHT22;6483;51.310;4.462;2022-07-22T19:31:36;18.60;99.90
12833;DHT22;6483;51.310;4.462;2022-07-22T19:34:02;18.60;99.90
12833;DHT22;6483;51.310;4.462;2022-07-22T19:36:29;18.60;99.90
12833;DHT22;6483;51.310;4.462;2022-07-22T19:38:55;18.50;99.90
12833;DHT22;6483;51.310;4.462;2022-07-22T19:41:25;18.50;99.90
12833;DHT22;6483;51.310;4.462;2022-07-22T19:43:50;18.40;99.90
12833;DHT22;6483;51.310;4.462;2022-07-22T19:46:16;18.40;99.90
12833;DHT22;6483;51.310;4.462;2022-07-22T19:48:43;18.40;99.90
12833;DHT22;6483;51.310;4.462;2022-07-22T19:51:08;18.40;99.90
12833;DHT22;6483;51.310;4.462;2022-07-22T19:53:34;18.40;99.90
12833;DHT22;6483;51.310;4.462;2022-07-22T19:56:04;18.40;99.90
12833;DHT22;6483;51.310;4.462;2022-07-22T19:58:33;18.40;99.90
12833;DHT22;6483;51.310;4.462;2022-07-22T20:01:00;18.30;99.90
12833;DHT22;6483;51.310;4.462;2022-07-22T20:03:26;18.30;99.90
12833;DHT22;6483;51.310;4.462;2022-07-22T20:05:52;18.30;99.90
12833;DHT22;6483;51.310;4.462;2022-07-22T20:08:17;18.30;99.90
12833;DHT22;6483;51.310;4.462;2022-07-22T20:10:44;18.20;99.90
12833;DHT22;6483;51.310;4.462;2022-07-22T20:13:14;18.20;99.90
12833;DHT22;6483;51.310;4.462;2022-07-22T20:15:40;18.10;99.90
12833;DHT22;6483;51.310;4.462;2022-07-22T20:18:05;18.10;99.90
12833;DHT22;6483;51.310;4.462;2022-07-22T20:20:34;18.10;99.90
12833;DHT22;6483;51.310;4.462;2022-07-22T20:23:00;18.20;99.90
12833;DHT22;6483;51.310;4.462;2022-07-22T20:25:26;18.20;99.90
12833;DHT22;6483;51.310;4.462;2022-07-22T20:27:52;18.20;99.90
12833;DHT22;6483;51.310;4.462;2022-07-22T20:30:17;18.10;99.90
12833;DHT22;6483;51.310;4.462;2022-07-22T20:32:44;18.10;99.90
12833;DHT22;6483;51.310;4.462;2022-07-22T20:35:09;18.00;99.90
12833;DHT22;6483;51.310;4.462;2022-07-22T20:37:35;17.90;99.90
12833;DHT22;6483;51.310;4.462;2022-07-22T20:40:02;17.80;99.90
12833;DHT22;6483;51.310;4.462;2022-07-22T20:42:28;17.70;99.90
12833;DHT22;6483;51.310;4.462;2022-07-22T20:44:54;17.60;99.90
12833;DHT22;6483;51.310;4.462;2022-07-22T20:47:22;17.50;99.90
12833;DHT22;6483;51.310;4.462;2022-07-22T20:49:48;17.40;99.90
12833;DHT22;6483;51.310;4.462;2022-07-22T20:52:17;17.30;99.90
12833;DHT22;6483;51.310;4.462;2022-07-22T20:54:45;17.20;99.90
12833;DHT22;6483;51.310;4.462;2022-07-22T20:57:11;17.20;99.90
12833;DHT22;6483;51.310;4.462;2022-07-22T20:59:36;17.20;99.90
12833;DHT22;6483;51.310;4.462;2022-07-22T21:02:05;17.10;99.90
12833;DHT22;6483;51.310;4.462;2022-07-22T21:04:31;17.10;99.90
12833;DHT22;6483;51.310;4.462;2022-07-22T21:07:00;17.00;99.90
12833;DHT22;6483;51.310;4.462;2022-07-22T21:09:25;16.90;99.90
12833;DHT22;6483;51.310;4.462;2022-07-22T21:11:51;16.90;99.90
12833;DHT22;6483;51.310;4.462;2022-07-22T21:14:20;16.80;99.90
12833;DHT22;6483;51.310;4.462;2022-07-22T21:16:46;16.80;99.90
12833;DHT22;6483;51.310;4.462;2022-07-22T21:19:15;16.70;99.90
12833;DHT22;6483;51.310;4.462;2022-07-22T21:21:40;16.70;99.90
12833;DHT22;6483;51.310;4.462;2022-07-22T21:24:09;16.70;99.90
12833;DHT22;6483;51.310;4.462;2022-07-22T21:26:35;16.70;99.90
12833;DHT22;6483;51.310;4.462;2022-07-22T21:29:01;16.60;99.90
12833;DHT22;6483;51.310;4.462;2022-07-22T21:31:29;16.50;99.90
12833;DHT22;6483;51.310;4.462;2022-07-22T21:33:58;16.40;99.90
12833;DHT22;6483;51.310;4.462;2022-07-22T21:36:24;16.40;99.90
12833;DHT22;6483;51.310;4.462;2022-07-22T21:38:50;16.20;99.90
12833;DHT22;6483;51.310;4.462;2022-07-22T21:41:16;16.10;99.90
12833;DHT22;6483;51.310;4.462;2022-07-22T21:43:42;16.10;99.90
12833;DHT22;6483;51.310;4.462;2022-07-22T21:46:07;16.10;99.90
12833;DHT22;6483;51.310;4.462;2022-07-22T21:48:33;16.00;99.90
12833;DHT22;6483;51.310;4.462;2022-07-22T21:51:08;15.90;99.90
12833;DHT22;6483;51.310;4.462;2022-07-22T21:53:34;15.70;99.90
12833;DHT22;6483;51.310;4.462;2022-07-22T21:55:59;15.70;99.90
12833;DHT22;6483;51.310;4.462;2022-07-22T21:58:46;15.70;99.90
12833;DHT22;6483;51.310;4.462;2022-07-22T22:01:12;15.70;99.90
12833;DHT22;6483;51.310;4.462;2022-07-22T22:03:38;15.60;99.90
12833;DHT22;6483;51.310;4.462;2022-07-22T22:06:05;15.60;99.90
12833;DHT22;6483;51.310;4.462;2022-07-22T22:08:30;15.60;99.90
12833;DHT22;6483;51.310;4.462;2022-07-22T22:10:56;15.60;99.90
12833;DHT22;6483;51.310;4.462;2022-07-22T22:13:24;15.50;99.90
12833;DHT22;6483;51.310;4.462;2022-07-22T22:15:53;15.50;99.90
12833;DHT22;6483;51.310;4.462;2022-07-22T22:18:19;15.50;99.90
12833;DHT22;6483;51.310;4.462;2022-07-22T22:20:45;15.60;99.90
12833;DHT22;6483;51.310;4.462;2022-07-22T22:23:11;15.70;99.90
12833;DHT22;6483;51.310;4.462;2022-07-22T22:25:37;15.80;99.90
12833;DHT22;6483;51.310;4.462;2022-07-22T22:28:03;15.90;99.90
12833;DHT22;6483;51.310;4.462;2022-07-22T22:30:31;15.90;99.90
12833;DHT22;6483;51.310;4.462;2022-07-22T22:32:57;15.90;99.90
12833;DHT22;6483;51.310;4.462;2022-07-22T22:35:23;16.00;99.90
12833;DHT22;6483;51.310;4.462;2022-07-22T22:37:49;16.00;99.90
12833;DHT22;6483;51.310;4.462;2022-07-22T22:40:15;16.20;99.90
12833;DHT22;6483;51.310;4.462;2022-07-22T22:42:41;16.20;99.90
12833;DHT22;6483;51.310;4.462;2022-07-22T22:45:07;16.30;99.90
12833;DHT22;6483;51.310;4.462;2022-07-22T22:47:33;16.40;99.90
12833;DHT22;6483;51.310;4.462;2022-07-22T22:49:59;16.40;99.90
12833;DHT22;6483;51.310;4.462;2022-07-22T22:52:25;16.50;99.90
12833;DHT22;6483;51.310;4.462;2022-07-22T22:54:51;16.50;99.90
12833;DHT22;6483;51.310;4.462;2022-07-22T22:57:16;16.60;99.90
12833;DHT22;6483;51.310;4.462;2022-07-22T22:59:42;16.60;99.90
12833;DHT22;6483;51.310;4.462;2022-07-22T23:02:12;16.50;99.90